Time;durP1;ratioP1;P1;durP2;ratioP2;P2;SDS_P1;SDS_P2;PMS_P1;PMS_P2;Temp;Humidity;BMP_temperature;BMP_pressure;BME280_temperature;BME280_humidity;BME280_pressure;Samples;Min_cycle;Max_cycle;Signal;HPM_P1;HPM_P2
2022/07/14 00:00:13;;;;;;;1.23;0.97;;;25.70;48.90;;;;;;4822210;29;20519;-84
2022/07/14 00:48:13;;;;;;;;;;;;;;;;;;;;;
2022/07/14 01:09:22;;;;;;;1.20;0.90;;;25.80;49.10;;;;;;4731819;30;20454;-85
2022/07/14 01:13:04;;;;;;;;;;;;;;;;;;;;;
2022/07/14 03:13:53;;;;;;;;;;;;;;;;;;;;;
2022/07/14 13:18:06;;;;;;;42.07;18.67;;;26.40;49.80;;;;;;4858481;29;20570;-88
2022/07/14 13:20:53;;;;;;;39.00;17.27;;;26.40;49.90;;;;;;4843515;29;20507;-85
2022/07/14 13:23:42;;;;;;;43.23;19.30;;;26.40;49.80;;;;;;4858558;29;20450;-84
2022/07/14 14:22:10;;;;;;;;;;;;;;;;;;;;;
2022/07/14 14:53:03;;;;;;;;;;;;;;;;;;;;;
2022/07/14 14:56:23;;;;;;;;;;;;;;;;;;;;;
2022/07/14 15:36:32;;;;;;;10.27;6.83;;;26.50;49.60;;;;;;4862063;29;20472;-85
2022/07/14 16:13:25;;;;;;;7.60;5.50;;;26.60;49.90;;;;;;4919780;29;20497;-83
2022/07/14 16:16:12;;;;;;;7.57;5.20;;;26.50;49.90;;;;;;4918986;29;20425;-84
2022/07/14 16:18:42;;;;;;;8.73;5.83;;;26.60;49.90;;;;;;4899988;29;20496;-82
2022/07/14 16:28:26;;;;;;;8.90;4.90;;;26.60;49.90;;;;;;4901305;29;20511;-83
2022/07/14 16:44:09;;;;;;;7.77;5.53;;;26.60;50.00;;;;;;4957247;29;20402;-83
2022/07/14 16:57:28;;;;;;;6.20;4.60;;;26.70;50.10;;;;;;5054143;28;20416;-83
2022/07/14 17:00:30;;;;;;;5.50;4.23;;;26.70;50.20;;;;;;5054180;28;20458;-83
2022/07/14 17:03:22;;;;;;;6.07;4.33;;;26.70;50.20;;;;;;5053491;28;20437;-83
2022/07/14 17:08:43;;;;;;;8.03;5.00;;;26.70;50.20;;;;;;5053888;28;20486;-83
2022/07/14 17:11:28;;;;;;;6.70;4.77;;;26.70;50.20;;;;;;5049703;28;20442;-83
2022/07/14 17:14:09;;;;;;;;;;;;;;;;;;;;;
2022/07/14 17:16:40;;;;;;;7.83;3.87;;;26.80;50.20;;;;;;5047823;28;20461;-83
2022/07/14 17:19:33;;;;;;;7.80;4.33;;;26.80;50.20;;;;;;5053215;28;20457;-83
2022/07/14 17:22:11;;;;;;;9.23;4.53;;;26.80;50.10;;;;;;5036211;28;20421;-84
2022/07/14 17:25:22;;;;;;;5.60;4.67;;;26.80;50.10;;;;;;5053583;28;20414;-82
2022/07/14 17:35:54;;;;;;;;;;;;;;;;;;;;;
2022/07/14 17:38:40;;;;;;;5.40;4.03;;;26.80;50.20;;;;;;4993403;28;20496;-83
2022/07/14 17:41:10;;;;;;;4.50;4.00;;;26.80;50.30;;;;;;5011215;28;20432;-83
2022/07/14 17:43:39;;;;;;;4.37;3.90;;;26.80;50.20;;;;;;5013359;28;20420;-83
2022/07/14 17:46:08;;;;;;;5.03;3.93;;;26.80;50.20;;;;;;5013657;28;20865;-83
2022/07/14 17:48:37;;;;;;;5.60;3.70;;;26.90;50.30;;;;;;4997358;28;20863;-83
2022/07/14 17:58:11;;;;;;;5.33;3.50;;;26.90;50.20;;;;;;5000398;28;20459;-83
2022/07/14 18:01:34;;;;;;;;;;;;;;;;;;;;;
2022/07/14 18:11:13;;;;;;;4.83;4.00;;;26.90;50.30;;;;;;4935456;29;20530;-83
2022/07/14 18:13:48;;;;;;;4.20;3.60;;;26.90;50.30;;;;;;4920015;29;20408;-83
2022/07/14 18:16:17;;;;;;;4.87;4.20;;;26.90;50.30;;;;;;4953389;29;20431;-84
2022/07/14 18:18:46;;;;;;;4.97;3.87;;;26.90;50.30;;;;;;4953626;29;21104;-83
2022/07/14 18:21:52;;;;;;;4.80;3.80;;;26.90;50.30;;;;;;4953306;29;20428;-82
2022/07/14 18:24:20;;;;;;;4.23;3.57;;;26.90;50.30;;;;;;4954099;29;20435;-82
2022/07/14 18:26:48;;;;;;;4.93;3.47;;;26.90;50.30;;;;;;4949597;29;20440;-82
2022/07/14 18:29:23;;;;;;;4.60;3.43;;;26.90;50.30;;;;;;4937175;29;20953;-83
2022/07/14 18:31:52;;;;;;;4.37;3.53;;;26.90;50.30;;;;;;4937986;29;20423;-83
2022/07/14 18:34:20;;;;;;;5.73;3.47;;;26.90;50.30;;;;;;4938022;29;20419;-82
2022/07/14 18:37:41;;;;;;;5.37;3.93;;;26.90;50.30;;;;;;4937771;29;20465;-83
2022/07/14 18:40:08;;;;;;;5.23;3.43;;;26.90;50.30;;;;;;4958493;29;20413;-81
2022/07/14 18:42:37;;;;;;;4.23;3.50;;;27.00;50.40;;;;;;4972764;29;20417;-81
2022/07/14 18:55:13;;;;;;;;;;;;;;;;;;;;;
2022/07/14 19:08:41;;;;;;;;;;;;;;;;;;;;;
2022/07/14 19:11:22;;;;;;;3.70;3.27;;;27.00;50.50;;;;;;4876651;29;21147;-81
2022/07/14 19:14:19;;;;;;;6.53;4.27;;;26.90;50.50;;;;;;4876394;29;20905;-81
2022/07/14 19:16:45;;;;;;;3.80;3.40;;;26.90;50.40;;;;;;4853771;29;20488;-81
2022/07/14 19:22:41;;;;;;;3.97;3.17;;;27.00;50.50;;;;;;4906511;29;20179;-81
2022/07/14 19:25:09;;;;;;;3.63;2.90;;;27.00;50.40;;;;;;4913491;29;20409;-82
2022/07/14 19:27:39;;;;;;;4.97;3.47;;;27.00;50.40;;;;;;4914134;29;20452;-83
2022/07/14 19:30:06;;;;;;;4.40;3.03;;;27.00;50.40;;;;;;4913192;29;20428;-81
2022/07/14 19:32:32;;;;;;;4.70;3.67;;;27.00;50.40;;;;;;4915973;29;20416;-81
2022/07/14 19:34:59;;;;;;;5.00;3.70;;;27.00;50.40;;;;;;4977045;28;20521;-81
2022/07/14 19:37:26;;;;;;;3.50;3.20;;;27.00;50.40;;;;;;4992984;28;20243;-81
2022/07/14 19:39:52;;;;;;;4.70;3.77;;;27.10;50.50;;;;;;5008503;28;20423;-82
2022/07/14 19:42:19;;;;;;;4.20;3.77;;;27.10;50.40;;;;;;4992728;28;20482;-82
2022/07/14 19:44:45;;;;;;;3.33;3.03;;;27.10;51.00;;;;;;4976983;28;20432;-81
2022/07/14 19:47:11;;;;;;;4.10;3.30;;;27.10;50.40;;;;;;5009822;28;20416;-81
2022/07/14 19:49:42;;;;;;;3.87;3.30;;;27.10;50.40;;;;;;5009586;28;20620;-82
2022/07/14 19:52:08;;;;;;;2.97;2.77;;;27.10;50.40;;;;;;4977037;28;20428;-83
2022/07/14 19:54:34;;;;;;;3.40;3.10;;;27.10;50.40;;;;;;5059578;28;20412;-83
2022/07/14 19:57:03;;;;;;;3.23;2.93;;;27.10;50.40;;;;;;5073820;28;20193;-83
2022/07/14 19:59:30;;;;;;;5.10;3.27;;;27.10;50.40;;;;;;5072529;28;20428;-83
2022/07/14 20:01:56;;;;;;;3.03;2.77;;;27.10;50.30;;;;;;5056422;28;20413;-82
2022/07/14 20:04:21;;;;;;;4.27;3.23;;;27.10;50.30;;;;;;5073449;28;20474;-82
2022/07/14 20:06:48;;;;;;;5.60;3.17;;;27.10;50.20;;;;;;5073605;28;20907;-83
2022/07/14 20:09:15;;;;;;;4.40;3.30;;;27.10;50.20;;;;;;5091491;28;20174;-83
2022/07/14 20:11:41;;;;;;;3.73;3.40;;;27.10;50.20;;;;;;5072771;28;20413;-83
2022/07/14 20:14:08;;;;;;;4.40;3.20;;;27.10;50.20;;;;;;5091393;28;20565;-83
2022/07/14 20:16:34;;;;;;;3.07;2.83;;;27.10;50.10;;;;;;5072536;28;20456;-83
2022/07/14 20:18:59;;;;;;;4.03;3.63;;;27.10;50.10;;;;;;5091143;28;20441;-83
2022/07/14 20:21:26;;;;;;;3.27;2.97;;;27.10;50.10;;;;;;5091037;28;20186;-82
2022/07/14 20:23:52;;;;;;;3.60;3.27;;;27.00;50.00;;;;;;5072978;28;20186;-82
2022/07/14 20:26:18;;;;;;;3.50;3.20;;;27.00;50.00;;;;;;5073127;28;20427;-81
2022/07/14 20:34:12;;;;;;;4.20;3.13;;;27.00;50.00;;;;;;5090767;28;20395;-83
2022/07/14 20:36:38;;;;;;;4.00;2.90;;;27.00;49.90;;;;;;5090399;28;20412;-83
2022/07/14 20:39:07;;;;;;;4.47;3.13;;;27.00;49.90;;;;;;5075341;28;20452;-84
2022/07/14 20:41:36;;;;;;;3.30;2.90;;;27.00;49.90;;;;;;5077291;28;20420;-84
2022/07/14 20:44:02;;;;;;;3.47;3.10;;;26.90;49.80;;;;;;5076939;28;20454;-83
2022/07/14 20:49:29;;;;;;;3.60;3.13;;;26.90;49.70;;;;;;5095089;28;20422;-84
2022/07/14 20:52:02;;;;;;;3.43;3.13;;;26.90;49.70;;;;;;5094376;28;20404;-84
2022/07/14 20:54:31;;;;;;;4.50;2.70;;;26.90;49.60;;;;;;5093855;28;20425;-84
2022/07/14 20:56:57;;;;;;;4.30;3.90;;;26.90;49.60;;;;;;5075682;28;20428;-84
2022/07/14 20:59:23;;;;;;;2.93;2.73;;;26.90;49.60;;;;;;5071478;28;20408;-83
2022/07/14 21:01:49;;;;;;;3.80;3.43;;;26.90;49.60;;;;;;5089816;28;20742;-82
2022/07/14 21:04:16;;;;;;;2.80;2.60;;;26.90;49.50;;;;;;5089924;28;20178;-83
2022/07/14 21:06:42;;;;;;;3.23;2.93;;;26.90;49.50;;;;;;5071581;28;20202;-83
2022/07/14 21:09:09;;;;;;;2.90;2.63;;;26.90;50.00;;;;;;5072422;28;20428;-82
2022/07/14 21:11:34;;;;;;;3.13;2.83;;;26.90;49.40;;;;;;5090008;28;20408;-82
2022/07/14 21:14:00;;;;;;;3.00;2.70;;;26.90;49.40;;;;;;5074023;28;20404;-85
2022/07/14 21:16:28;;;;;;;2.50;2.30;;;26.90;49.40;;;;;;5073464;28;20636;-85
2022/07/14 21:18:55;;;;;;;3.33;3.03;;;26.90;49.40;;;;;;5090977;28;20198;-85
2022/07/14 21:21:21;;;;;;;3.20;2.00;;;26.90;49.40;;;;;;5089647;28;20430;-85
2022/07/14 21:23:47;;;;;;;3.40;2.43;;;26.90;49.40;;;;;;5062958;28;20420;-85
2022/07/14 21:26:15;;;;;;;3.40;2.47;;;26.90;49.40;;;;;;5071289;28;20405;-85
2022/07/14 21:28:41;;;;;;;2.60;2.40;;;26.90;49.40;;;;;;5052616;28;20430;-85
2022/07/14 21:31:06;;;;;;;2.70;2.03;;;26.90;49.40;;;;;;5052860;28;20493;-85
2022/07/14 21:33:35;;;;;;;3.37;2.70;;;26.90;49.40;;;;;;5053507;28;20441;-85
2022/07/14 21:36:01;;;;;;;3.50;2.50;;;26.80;49.40;;;;;;5052577;28;20191;-85
2022/07/14 21:38:31;;;;;;;2.10;1.90;;;26.90;49.50;;;;;;5070495;28;20457;-85
2022/07/14 21:40:57;;;;;;;2.90;2.10;;;26.90;49.50;;;;;;5068952;28;20441;-85
2022/07/14 21:43:22;;;;;;;3.20;2.23;;;26.80;49.40;;;;;;5051034;28;20418;-84
2022/07/14 21:45:49;;;;;;;3.10;2.20;;;26.80;49.50;;;;;;5067100;28;20613;-84
2022/07/14 21:48:15;;;;;;;2.77;2.17;;;26.80;49.50;;;;;;5050545;28;20183;-84
2022/07/14 21:50:42;;;;;;;2.50;2.10;;;26.80;49.50;;;;;;5067667;28;20412;-84
2022/07/14 21:53:07;;;;;;;2.53;2.33;;;26.80;49.50;;;;;;5068541;28;20190;-84
2022/07/14 21:55:34;;;;;;;2.43;2.23;;;26.80;49.40;;;;;;5066977;28;20426;-84
2022/07/14 21:58:00;;;;;;;2.43;2.10;;;26.80;49.40;;;;;;5049913;28;20215;-83
2022/07/14 22:00:28;;;;;;;3.10;2.13;;;26.70;49.40;;;;;;5050829;28;20410;-82
2022/07/14 22:02:56;;;;;;;2.53;2.33;;;26.70;49.30;;;;;;5051472;28;20493;-83
2022/07/14 22:05:21;;;;;;;2.27;1.70;;;26.70;49.80;;;;;;5050642;28;20413;-82
2022/07/14 22:07:48;;;;;;;2.10;1.90;;;26.70;49.20;;;;;;5050486;28;20426;-83
2022/07/14 22:10:14;;;;;;;2.90;2.00;;;26.70;49.00;;;;;;5050923;28;20187;-82
2022/07/14 22:12:41;;;;;;;2.43;1.87;;;26.70;48.90;;;;;;5050318;28;20468;-82
2022/07/14 22:15:07;;;;;;;3.30;2.07;;;26.70;48.90;;;;;;5068609;28;20904;-82
2022/07/14 22:17:33;;;;;;;2.30;1.80;;;26.70;48.90;;;;;;5050567;28;20537;-83
2022/07/14 22:20:01;;;;;;;2.87;2.20;;;26.70;48.80;;;;;;5048247;28;20480;-82
2022/07/14 22:22:27;;;;;;;7.70;2.30;;;26.70;48.80;;;;;;5048678;28;20410;-83
2022/07/14 22:24:53;;;;;;;1.93;1.70;;;26.70;48.80;;;;;;5048332;28;20409;-83
2022/07/14 22:27:18;;;;;;;2.40;1.63;;;26.70;48.80;;;;;;5030410;28;20187;-83
2022/07/14 22:29:46;;;;;;;1.67;1.57;;;26.70;49.40;;;;;;5049558;28;20418;-83
2022/07/14 22:32:12;;;;;;;2.97;2.20;;;26.70;48.90;;;;;;5035737;28;20179;-83
2022/07/14 22:34:40;;;;;;;2.57;1.80;;;26.70;49.10;;;;;;5067997;28;20410;-82
2022/07/14 22:37:06;;;;;;;2.17;1.90;;;26.70;49.10;;;;;;5051313;28;20187;-83
2022/07/14 22:39:32;;;;;;;1.93;1.50;;;26.70;49.10;;;;;;5033639;28;20425;-83
2022/07/14 22:41:58;;;;;;;2.20;1.73;;;26.70;49.10;;;;;;5068484;28;20406;-82
2022/07/14 22:44:24;;;;;;;1.93;1.47;;;26.70;49.10;;;;;;5050553;28;20473;-83
2022/07/14 22:46:50;;;;;;;2.10;1.60;;;26.70;49.10;;;;;;5050500;28;20187;-82
2022/07/14 22:49:16;;;;;;;2.70;1.57;;;26.70;49.10;;;;;;5067448;28;20413;-82
2022/07/14 22:51:42;;;;;;;1.53;1.43;;;26.70;49.10;;;;;;5050002;28;20205;-82
2022/07/14 22:54:10;;;;;;;3.03;1.70;;;26.70;49.10;;;;;;5051075;28;20205;-82
2022/07/14 22:56:37;;;;;;;1.90;1.60;;;26.70;49.10;;;;;;5051003;28;20398;-82
2022/07/14 22:59:03;;;;;;;2.37;1.67;;;26.70;49.00;;;;;;5050238;28;20445;-82
2022/07/14 23:01:30;;;;;;;2.83;1.57;;;26.70;49.00;;;;;;5067046;28;20398;-83
2022/07/14 23:03:56;;;;;;;2.67;1.50;;;26.70;49.00;;;;;;5068429;28;20907;-83
2022/07/14 23:06:24;;;;;;;1.87;1.43;;;26.60;48.90;;;;;;5067918;28;20417;-82
2022/07/14 23:08:51;;;;;;;1.83;1.63;;;26.70;49.00;;;;;;5067664;28;20190;-83
2022/07/14 23:14:01;;;;;;;2.00;1.70;;;26.70;48.90;;;;;;5072133;28;20392;-82
2022/07/14 23:16:27;;;;;;;2.60;1.43;;;26.60;48.80;;;;;;5078966;28;20451;-82
2022/07/14 23:18:52;;;;;;;2.57;1.77;;;26.60;48.80;;;;;;5074145;28;20217;-82
2022/07/14 23:21:19;;;;;;;2.03;1.70;;;26.60;48.80;;;;;;5073349;28;20171;-83
2022/07/14 23:23:45;;;;;;;1.50;1.30;;;26.60;48.80;;;;;;5091703;28;20171;-83
2022/07/14 23:26:11;;;;;;;2.53;1.60;;;26.60;48.70;;;;;;5090892;28;20476;-83
2022/07/14 23:28:37;;;;;;;1.77;1.43;;;26.60;48.70;;;;;;5090709;28;20258;-83
2022/07/14 23:31:03;;;;;;;1.93;1.70;;;26.60;48.70;;;;;;5091255;28;20389;-82
2022/07/14 23:33:29;;;;;;;2.03;1.60;;;26.60;48.70;;;;;;5073265;28;20186;-83
2022/07/14 23:35:55;;;;;;;2.10;1.90;;;26.60;48.60;;;;;;5091014;28;20182;-82
2022/07/14 23:38:21;;;;;;;2.57;1.37;;;26.60;48.60;;;;;;5073512;28;20456;-82
2022/07/14 23:40:47;;;;;;;2.13;1.60;;;26.60;48.60;;;;;;5092172;28;20421;-82
2022/07/14 23:43:12;;;;;;;2.03;1.70;;;26.60;48.50;;;;;;5091261;28;20183;-83
2022/07/14 23:45:39;;;;;;;2.23;1.63;;;26.60;48.50;;;;;;5091193;28;20412;-83
2022/07/14 23:48:05;;;;;;;1.83;1.37;;;26.60;48.50;;;;;;5072264;28;20189;-82
2022/07/14 23:50:31;;;;;;;1.60;1.50;;;26.60;48.50;;;;;;5072347;28;20432;-82
2022/07/14 23:52:56;;;;;;;2.10;1.70;;;26.60;48.50;;;;;;5090600;28;20915;-83
2022/07/14 23:55:22;;;;;;;2.37;1.60;;;26.60;48.40;;;;;;5090889;28;20866;-83
2022/07/14 23:57:48;;;;;;;2.33;1.73;;;26.60;48.40;;;;;;5071519;28;20269;-83
